createdAt,value
2019-06-07T00:01:44.860Z,100.00
2019-06-07T00:04:15.961Z,100.00
2019-06-07T00:07:04.059Z,100.00
2019-06-07T00:09:33.426Z,100.00
2019-06-07T00:12:02.713Z,100.00
2019-06-07T00:17:20.592Z,100.00
2019-06-07T00:19:51.352Z,100.00
2019-06-07T00:22:32.436Z,100.00
2019-06-07T00:24:51.662Z,100.00
2019-06-07T00:33:15.207Z,100.00
2019-06-07T00:35:41.336Z,100.00
2019-06-07T00:38:11.895Z,100.00
2019-06-07T00:40:53.018Z,100.00
2019-06-07T00:43:27.848Z,100.00
2019-06-07T00:45:53.361Z,100.00
2019-06-07T00:48:31.824Z,100.00
2019-06-07T00:50:53.667Z,100.00
2019-06-07T00:53:31.608Z,100.00
2019-06-07T00:58:42.246Z,100.00
2019-06-07T01:01:13.090Z,100.00
2019-06-07T01:06:30.790Z,100.00
2019-06-07T01:09:00.119Z,100.00
2019-06-07T01:14:19.360Z,100.00
2019-06-07T01:16:57.488Z,100.00
2019-06-07T01:19:22.357Z,100.00
2019-06-07T01:21:50.702Z,100.00
2019-06-07T01:26:55.293Z,100.00
2019-06-07T01:29:27.432Z,100.00
2019-06-07T01:31:55.612Z,100.00
2019-06-07T01:34:26.602Z,100.00
2019-06-07T01:37:16.727Z,100.00
2019-06-07T01:39:45.961Z,100.00
2019-06-07T01:42:18.175Z,100.00
2019-06-07T01:44:46.244Z,100.00
2019-06-07T01:47:15.565Z,100.00
2019-06-07T01:52:22.850Z,100.00
2019-06-07T01:54:58.050Z,100.00
2019-06-07T01:57:38.328Z,100.00
2019-06-07T01:59:52.491Z,100.00
2019-06-07T02:02:40.831Z,100.00
2019-06-07T02:05:30.893Z,100.00
2019-06-07T02:08:00.269Z,100.00
2019-06-07T02:10:33.231Z,100.00
2019-06-07T02:13:00.655Z,100.00
2019-06-07T02:15:36.095Z,100.00
2019-06-07T02:18:00.962Z,100.00
2019-06-07T02:20:34.238Z,100.00
2019-06-07T02:23:01.290Z,100.00
2019-06-07T02:25:45.973Z,100.00
2019-06-07T02:28:26.629Z,100.00
2019-06-07T02:30:44.095Z,100.00
2019-06-07T02:35:40.685Z,100.00
2019-06-07T02:38:09.615Z,100.00
2019-06-07T02:40:38.889Z,100.00
2019-06-07T02:43:08.229Z,100.00
2019-06-07T02:45:43.110Z,100.00
2019-06-07T02:48:08.553Z,100.00
2019-06-07T02:50:38.981Z,100.00
2019-06-07T02:53:08.942Z,100.00
2019-06-07T02:58:31.124Z,100.00
2019-06-07T03:01:07.746Z,100.00
2019-06-07T03:03:30.615Z,100.00
2019-06-07T03:06:20.124Z,100.00
2019-06-07T03:08:49.404Z,100.00
2019-06-07T03:14:39.404Z,100.00
2019-06-07T03:17:30.458Z,100.00
2019-06-07T03:20:39.809Z,100.00
2019-06-07T03:23:09.057Z,100.00
2019-06-07T03:26:17.690Z,100.00
2019-06-07T03:31:55.590Z,100.00
2019-06-07T03:37:13.155Z,100.00
2019-06-07T03:39:42.425Z,100.00
2019-06-07T03:42:11.703Z,100.00
2019-06-07T03:44:41.652Z,100.00
2019-06-07T03:47:11.990Z,100.00
2019-06-07T03:50:00.325Z,100.00
2019-06-07T03:52:30.193Z,100.00
2019-06-07T03:55:00.767Z,100.00
2019-06-07T03:57:37.013Z,100.00
2019-06-07T04:00:01.046Z,100.00
2019-06-07T04:02:31.042Z,100.00
2019-06-07T04:05:01.348Z,100.00
2019-06-07T04:07:31.162Z,100.00
2019-06-07T04:10:01.657Z,100.00
2019-06-07T04:12:34.253Z,100.00
2019-06-07T04:15:02.004Z,100.00
2019-06-07T04:17:33.851Z,100.00
2019-06-07T04:20:21.329Z,100.00
2019-06-07T04:22:50.679Z,100.00
2019-06-07T04:25:19.954Z,100.00
2019-06-07T04:28:08.144Z,100.00
2019-06-07T04:37:08.850Z,100.00
2019-06-07T04:40:17.491Z,100.00
2019-06-07T04:55:06.158Z,100.00
2019-06-07T04:57:37.106Z,100.00
2019-06-07T05:00:46.621Z,100.00
2019-06-07T05:02:42.427Z,100.00
2019-06-07T05:05:48.549Z,100.00
2019-06-07T05:08:28.243Z,100.00
2019-06-07T05:10:48.849Z,100.00
2019-06-07T05:13:18.172Z,100.00
2019-06-07T05:15:47.486Z,100.00
2019-06-07T05:18:16.752Z,100.00
2019-06-07T05:20:46.051Z,100.00
2019-06-07T05:23:59.437Z,100.00
2019-06-07T05:25:46.366Z,100.00
2019-06-07T05:28:15.631Z,100.00
2019-06-07T05:31:05.565Z,100.00
2019-06-07T05:33:36.604Z,100.00
2019-06-07T05:36:05.875Z,100.00
2019-06-07T05:38:36.212Z,100.00
2019-06-07T05:41:06.232Z,100.00
2019-06-07T05:44:15.241Z,100.00
2019-06-07T05:46:46.918Z,100.00
2019-06-07T05:49:16.950Z,100.00
2019-06-07T05:51:46.209Z,100.00
2019-06-07T05:54:15.497Z,100.00
2019-06-07T05:56:45.361Z,100.00
2019-06-07T05:59:15.832Z,100.00
2019-06-07T06:01:55.933Z,100.00
2019-06-07T06:04:16.167Z,100.00
2019-06-07T06:06:47.186Z,100.00
2019-06-07T06:09:16.475Z,100.00
2019-06-07T06:11:59.692Z,100.00
2019-06-07T06:14:16.805Z,100.00
2019-06-07T06:16:49.350Z,100.00
2019-06-07T06:19:17.192Z,100.00
2019-06-07T06:21:46.584Z,100.00
2019-06-07T06:24:15.827Z,100.00
2019-06-07T06:26:51.205Z,100.00
2019-06-07T06:32:40.591Z,100.00
2019-06-07T06:34:39.396Z,99.93
2019-06-07T06:37:06.404Z,100.00
2019-06-07T06:39:37.031Z,100.00
2019-06-07T06:42:06.721Z,99.81
2019-06-07T06:44:36.026Z,99.95
2019-06-07T06:47:05.284Z,99.71
2019-06-07T06:49:34.600Z,99.77
2019-06-07T06:52:03.886Z,99.61
2019-06-07T06:54:40.835Z,99.55
2019-06-07T06:57:19.110Z,99.81
2019-06-07T06:59:39.350Z,98.69
2019-06-07T07:02:06.212Z,98.69
2019-06-07T07:07:36.400Z,99.02
2019-06-07T07:10:46.633Z,98.73
2019-06-07T07:13:16.966Z,98.75
2019-06-07T07:15:50.099Z,98.33
2019-06-07T07:18:17.262Z,99.08
2019-06-07T07:20:48.250Z,98.54
2019-06-07T07:23:17.545Z,98.35
2019-06-07T07:25:52.735Z,97.42
2019-06-07T07:28:17.824Z,97.65
2019-06-07T07:31:27.156Z,97.15
2019-06-07T07:34:29.000Z,95.88
2019-06-07T07:36:38.694Z,95.14
2019-06-07T07:39:04.740Z,95.92
2019-06-07T07:41:29.563Z,94.73
2019-06-07T07:44:38.150Z,94.66
2019-06-07T07:47:07.437Z,94.21
2019-06-07T07:49:36.778Z,94.83
2019-06-07T07:52:06.110Z,95.14
2019-06-07T07:54:35.388Z,94.47
2019-06-07T07:57:04.684Z,94.07
2019-06-07T07:59:42.233Z,93.66
2019-06-07T08:02:05.003Z,93.50
2019-06-07T08:05:12.921Z,93.48
2019-06-07T08:09:39.916Z,93.34
2019-06-07T08:12:09.204Z,92.73
2019-06-07T08:14:38.462Z,90.92
2019-06-07T08:17:26.825Z,91.62
2019-06-07T08:19:57.529Z,91.32
2019-06-07T08:22:27.090Z,91.18
2019-06-07T08:24:59.836Z,90.48
2019-06-07T08:36:10.319Z,90.76
2019-06-07T08:38:44.954Z,90.54
2019-06-07T08:41:10.951Z,91.46
2019-06-07T08:43:31.582Z,91.58
2019-06-07T08:46:06.855Z,91.39
2019-06-07T08:48:31.854Z,91.94
2019-06-07T08:51:08.028Z,91.82
2019-06-07T08:53:32.164Z,92.21
2019-06-07T08:56:20.489Z,92.35
2019-06-07T08:58:54.951Z,93.76
2019-06-07T09:01:20.771Z,93.80
2019-06-07T09:03:50.035Z,93.48
2019-06-07T09:07:01.266Z,93.76
2019-06-07T09:08:50.402Z,93.93
2019-06-07T09:11:19.694Z,92.21
2019-06-07T09:13:48.951Z,91.80
2019-06-07T09:16:18.243Z,91.54
2019-06-07T09:18:47.628Z,91.76
2019-06-07T09:21:16.878Z,89.70
2019-06-07T09:23:46.196Z,88.45
2019-06-07T09:26:18.209Z,89.20
2019-06-07T09:31:55.907Z,88.59
2019-06-07T09:35:12.403Z,88.69
2019-06-07T09:38:04.261Z,87.22
2019-06-07T09:40:46.822Z,85.05
2019-06-07T09:44:00.139Z,85.00
2019-06-07T09:45:47.127Z,85.29
2019-06-07T09:49:08.491Z,83.74
2019-06-07T09:51:18.584Z,82.78
2019-06-07T09:53:37.557Z,82.78
2019-06-07T09:56:09.601Z,81.99
2019-06-07T09:58:54.193Z,82.45
2019-06-07T10:01:13.299Z,82.03
2019-06-07T10:03:39.995Z,81.95
2019-06-07T10:06:13.400Z,81.96
2019-06-07T10:11:20.371Z,80.10
2019-06-07T10:13:49.648Z,80.07
2019-06-07T10:16:19.007Z,79.76
2019-06-07T10:18:48.258Z,79.81
2019-06-07T10:21:17.534Z,80.20
2019-06-07T10:23:46.834Z,78.77
2019-06-07T10:26:16.115Z,79.28
2019-06-07T10:28:45.394Z,79.73
2019-06-07T10:31:14.800Z,79.89
2019-06-07T10:33:44.078Z,80.15
2019-06-07T10:36:13.405Z,79.77
2019-06-07T10:38:42.680Z,79.65
2019-06-07T10:41:11.973Z,76.64
2019-06-07T10:43:41.318Z,78.21
2019-06-07T10:46:12.060Z,77.30
2019-06-07T10:48:41.617Z,77.21
2019-06-07T10:51:29.962Z,76.41
2019-06-07T10:53:59.296Z,75.76
2019-06-07T10:56:28.583Z,75.09
2019-06-07T10:58:57.862Z,75.57
2019-06-07T11:01:27.140Z,76.87
2019-06-07T11:03:56.405Z,76.85
2019-06-07T11:06:25.687Z,76.62
2019-06-07T11:08:55.077Z,75.24
2019-06-07T11:11:24.351Z,72.54
2019-06-07T11:13:53.619Z,74.40
2019-06-07T11:16:22.908Z,75.57
2019-06-07T11:18:52.219Z,73.65
2019-06-07T11:21:21.498Z,72.78
2019-06-07T11:23:50.788Z,73.06
2019-06-07T11:26:20.129Z,71.65
2019-06-07T11:28:49.396Z,70.48
2019-06-07T11:31:18.998Z,68.20
2019-06-07T11:33:49.735Z,70.29
2019-06-07T11:36:18.986Z,70.28
2019-06-07T11:38:48.252Z,69.66
2019-06-07T11:41:17.879Z,70.09
2019-06-07T11:43:48.515Z,68.30
2019-06-07T11:46:17.784Z,68.81
2019-06-07T11:48:47.058Z,68.89
2019-06-07T11:51:16.337Z,68.94
2019-06-07T11:53:45.643Z,69.43
2019-06-07T11:56:16.018Z,70.82
2019-06-07T11:58:45.934Z,69.62
2019-06-07T12:01:17.124Z,70.60
2019-06-07T12:03:46.195Z,70.75
2019-06-07T12:06:34.519Z,71.27
2019-06-07T12:09:16.672Z,70.33
2019-06-07T12:11:46.109Z,69.43
2019-06-07T12:14:16.744Z,70.23
2019-06-07T12:16:46.376Z,70.80
2019-06-07T12:19:15.646Z,70.24
2019-06-07T12:21:44.924Z,68.68
2019-06-07T12:24:14.267Z,69.07
2019-06-07T12:26:43.561Z,68.51
2019-06-07T12:29:12.881Z,68.85
2019-06-07T12:32:01.251Z,66.44
2019-06-07T12:34:30.469Z,68.59
2019-06-07T12:36:59.771Z,66.34
2019-06-07T12:39:29.035Z,66.21
2019-06-07T12:41:58.432Z,66.85
2019-06-07T12:44:27.685Z,66.73
2019-06-07T12:46:56.959Z,63.84
2019-06-07T12:49:26.241Z,66.34
2019-06-07T12:51:55.548Z,63.96
2019-06-07T12:54:24.840Z,63.74
2019-06-07T12:56:54.121Z,64.33
2019-06-07T12:59:24.333Z,63.40
2019-06-07T13:01:54.422Z,63.30
2019-06-07T13:04:24.986Z,62.61
2019-06-07T13:06:54.726Z,61.63
2019-06-07T13:09:24.135Z,60.98
2019-06-07T13:11:53.507Z,62.72
2019-06-07T13:14:23.945Z,62.81
2019-06-07T13:16:53.919Z,63.21
2019-06-07T13:19:24.307Z,62.53
2019-06-07T13:21:54.239Z,62.34
2019-06-07T13:24:42.406Z,61.58
2019-06-07T13:27:11.699Z,60.69
2019-06-07T13:29:40.977Z,60.34
2019-06-07T13:32:10.274Z,62.80
2019-06-07T13:34:39.571Z,63.32
2019-06-07T13:37:08.856Z,62.43
2019-06-07T13:39:38.140Z,62.19
2019-06-07T13:42:07.385Z,62.03
2019-06-07T13:44:36.673Z,61.06
2019-06-07T13:47:05.951Z,61.21
2019-06-07T13:49:35.254Z,62.40
2019-06-07T13:52:04.547Z,61.32
2019-06-07T13:54:33.823Z,59.91
2019-06-07T13:57:03.367Z,60.06
2019-06-07T13:59:32.667Z,60.58
2019-06-07T14:02:01.950Z,60.88
2019-06-07T14:07:21.179Z,60.13
2019-06-07T14:09:50.547Z,58.12
2019-06-07T14:12:19.941Z,58.43
2019-06-07T14:14:49.260Z,57.84
2019-06-07T14:17:18.537Z,58.52
2019-06-07T14:19:47.908Z,56.71
2019-06-07T14:22:17.220Z,57.68
2019-06-07T14:24:46.498Z,58.75
2019-06-07T14:27:15.839Z,57.37
2019-06-07T14:30:04.036Z,55.28
2019-06-07T14:32:33.397Z,57.25
2019-06-07T14:35:02.718Z,56.23
2019-06-07T14:40:46.330Z,57.06
2019-06-07T14:43:15.641Z,57.09
2019-06-07T14:45:44.915Z,57.16
2019-06-07T14:48:14.199Z,55.28
2019-06-07T14:50:43.503Z,55.36
2019-06-07T14:53:12.976Z,55.63
2019-06-07T14:55:56.588Z,55.69
2019-06-07T14:58:13.815Z,56.00
2019-06-07T15:01:22.611Z,55.77
2019-06-07T15:03:52.024Z,55.12
2019-06-07T15:06:40.278Z,55.17
2019-06-07T15:09:09.660Z,54.84
2019-06-07T15:11:39.257Z,54.97
2019-06-07T15:14:08.660Z,55.03
2019-06-07T15:16:38.062Z,54.44
2019-06-07T15:19:07.327Z,54.44
2019-06-07T15:21:36.644Z,53.95
2019-06-07T15:24:06.025Z,54.80
2019-06-07T15:26:36.416Z,54.54
2019-06-07T15:29:06.310Z,54.14
2019-06-07T15:31:36.809Z,53.58
2019-06-07T15:34:17.317Z,53.58
2019-06-07T15:36:46.642Z,52.88
2019-06-07T15:39:15.963Z,53.76
2019-06-07T15:41:45.280Z,50.09
2019-06-07T15:44:14.580Z,53.59
2019-06-07T15:46:43.879Z,52.58
2019-06-07T15:49:13.155Z,53.69
2019-06-07T15:51:42.444Z,52.98
2019-06-07T15:54:11.785Z,50.20
2019-06-07T15:56:41.460Z,52.21
2019-06-07T15:59:12.239Z,50.99
2019-06-07T16:01:42.119Z,49.18
2019-06-07T16:04:12.551Z,51.77
2019-06-07T16:06:43.531Z,51.61
2019-06-07T16:09:12.991Z,52.15
2019-06-07T16:11:43.650Z,52.11
2019-06-07T16:14:13.459Z,51.76
2019-06-07T16:19:31.063Z,52.81
2019-06-07T16:22:00.345Z,52.72
2019-06-07T16:24:29.614Z,53.85
2019-06-07T16:26:58.931Z,53.60
2019-06-07T16:29:28.243Z,55.10
2019-06-07T16:31:57.583Z,53.20
2019-06-07T16:34:26.865Z,54.15
2019-06-07T16:36:56.252Z,54.54
2019-06-07T16:39:25.548Z,53.77
2019-06-07T16:41:54.889Z,55.15
2019-06-07T16:44:24.177Z,55.15
2019-06-07T16:49:42.965Z,55.58
2019-06-07T16:52:12.788Z,56.20
2019-06-07T16:54:43.523Z,55.54
2019-06-07T16:57:13.272Z,56.08
2019-06-07T16:59:44.389Z,55.75
2019-06-07T17:02:13.607Z,56.75
2019-06-07T17:04:43.549Z,56.42
2019-06-07T17:07:14.014Z,56.41
2019-06-07T17:09:45.777Z,56.53
2019-06-07T17:12:14.403Z,56.93
2019-06-07T17:14:44.576Z,56.98
2019-06-07T17:17:14.697Z,55.77
2019-06-07T17:19:45.014Z,56.92
2019-06-07T17:22:34.216Z,57.23
2019-06-07T17:25:03.491Z,57.62
2019-06-07T17:27:32.780Z,57.89
2019-06-07T17:30:02.099Z,57.79
2019-06-07T17:32:44.721Z,58.28
2019-06-07T17:35:02.479Z,58.85
2019-06-07T17:37:31.763Z,58.64
2019-06-07T17:40:01.054Z,59.33
2019-06-07T17:42:30.365Z,60.69
2019-06-07T17:47:47.956Z,60.85
2019-06-07T17:50:17.249Z,60.56
2019-06-07T17:53:05.548Z,60.92
2019-06-07T17:55:34.862Z,61.27
2019-06-07T17:58:04.255Z,62.21
2019-06-07T18:00:53.224Z,62.68
2019-06-07T18:03:24.025Z,62.87
2019-06-07T18:06:32.666Z,63.85
2019-06-07T18:09:22.382Z,64.69
2019-06-07T18:11:52.263Z,65.89
2019-06-07T18:14:22.843Z,66.11
2019-06-07T18:16:52.778Z,66.87
2019-06-07T18:19:23.435Z,67.39
2019-06-07T18:21:58.575Z,68.07
2019-06-07T18:24:23.774Z,68.07
2019-06-07T18:26:53.086Z,68.37
2019-06-07T18:29:22.354Z,69.15
2019-06-07T18:32:13.443Z,68.92
2019-06-07T18:34:41.559Z,68.88
2019-06-07T18:37:10.866Z,68.64
2019-06-07T18:39:40.147Z,69.31
2019-06-07T18:42:09.556Z,68.94
2019-06-07T18:44:38.919Z,68.67
2019-06-07T18:47:08.237Z,67.75
2019-06-07T18:49:37.549Z,68.03
2019-06-07T18:52:25.850Z,67.44
2019-06-07T18:54:55.203Z,66.82
2019-06-07T19:00:23.975Z,66.48
2019-06-07T19:02:54.033Z,66.25
2019-06-07T19:06:03.795Z,66.33
2019-06-07T19:08:33.094Z,64.94
2019-06-07T19:11:02.535Z,65.92
2019-06-07T19:16:06.323Z,66.85
2019-06-07T19:18:35.644Z,66.85
2019-06-07T19:21:04.938Z,66.77
2019-06-07T19:23:34.274Z,66.35
2019-06-07T19:26:03.612Z,66.66
2019-06-07T19:28:32.879Z,66.99
2019-06-07T19:31:02.239Z,67.40
2019-06-07T19:33:31.528Z,67.74
2019-06-07T19:36:01.799Z,68.24
2019-06-07T19:38:31.866Z,68.10
2019-06-07T19:41:16.723Z,68.44
2019-06-07T19:43:32.197Z,68.79
2019-06-07T19:46:02.469Z,69.43
2019-06-07T19:48:32.530Z,69.81
2019-06-07T19:51:03.086Z,70.22
2019-06-07T19:53:32.857Z,70.83
2019-06-07T19:56:03.362Z,70.93
2019-06-07T19:58:33.167Z,71.17
2019-06-07T20:01:02.603Z,71.47
2019-06-07T20:03:31.899Z,71.99
2019-06-07T20:06:02.358Z,72.27
2019-06-07T20:08:32.286Z,72.43
2019-06-07T20:11:20.522Z,72.11
2019-06-07T20:13:49.820Z,72.08
2019-06-07T20:16:19.269Z,71.96
2019-06-07T20:18:48.705Z,71.44
2019-06-07T20:21:18.108Z,71.51
2019-06-07T20:23:47.420Z,71.75
2019-06-07T20:26:16.867Z,71.70
2019-06-07T20:28:46.347Z,72.00
2019-06-07T20:31:15.769Z,71.07
2019-06-07T20:33:45.138Z,71.18
2019-06-07T20:36:14.693Z,71.54
2019-06-07T20:38:44.011Z,72.00
2019-06-07T20:41:13.330Z,71.35
2019-06-07T20:43:42.811Z,71.19
2019-06-07T20:46:12.102Z,71.50
2019-06-07T20:48:41.508Z,72.10
2019-06-07T20:51:29.880Z,72.68
2019-06-07T20:54:00.330Z,72.67
2019-06-07T20:56:30.225Z,73.17
2019-06-07T20:59:00.498Z,72.99
2019-06-07T21:01:30.734Z,72.10
2019-06-07T21:04:01.096Z,71.92
2019-06-07T21:06:31.277Z,71.96
2019-06-07T21:09:01.493Z,72.09
2019-06-07T21:11:31.725Z,71.95
2019-06-07T21:14:02.009Z,72.32
2019-06-07T21:16:32.122Z,72.83
2019-06-07T21:19:02.107Z,73.09
2019-06-07T21:21:51.781Z,73.31
2019-06-07T21:24:21.240Z,73.54
2019-06-07T21:26:53.254Z,74.00
2019-06-07T21:29:21.746Z,74.68
2019-06-07T21:31:51.194Z,74.93
2019-06-07T21:34:20.646Z,75.61
2019-06-07T21:36:50.021Z,76.14
2019-06-07T21:39:19.561Z,76.81
2019-06-07T21:41:48.918Z,77.23
2019-06-07T21:44:18.384Z,77.45
2019-06-07T21:46:47.743Z,77.92
2019-06-07T21:49:17.125Z,78.18
2019-06-07T21:54:34.778Z,79.04
2019-06-07T21:57:04.726Z,79.55
2019-06-07T21:59:54.194Z,79.73
2019-06-07T22:02:23.585Z,79.75
2019-06-07T22:04:52.923Z,79.77
2019-06-07T22:07:22.249Z,79.57
2019-06-07T22:09:51.542Z,79.68
2019-06-07T22:12:21.082Z,79.71
2019-06-07T22:14:50.506Z,80.07
2019-06-07T22:17:20.001Z,79.88
2019-06-07T22:19:49.457Z,79.69
2019-06-07T22:22:18.899Z,79.16
2019-06-07T22:24:48.238Z,78.79
2019-06-07T22:27:17.779Z,78.54
2019-06-07T22:29:47.036Z,79.02
2019-06-07T22:32:16.330Z,79.27
2019-06-07T22:34:45.593Z,79.61
2019-06-07T22:37:17.338Z,79.74
2019-06-07T22:39:45.934Z,79.90
2019-06-07T22:42:15.327Z,79.85
2019-06-07T22:44:44.577Z,79.86
2019-06-07T22:47:14.088Z,79.88
2019-06-07T22:49:44.861Z,80.36
2019-06-07T22:52:16.527Z,80.68
2019-06-07T22:54:45.143Z,80.81
2019-06-07T22:59:55.119Z,80.97
2019-06-07T23:02:24.404Z,81.50
2019-06-07T23:05:12.831Z,81.68
2019-06-07T23:07:42.128Z,81.87
2019-06-07T23:10:11.624Z,81.93
2019-06-07T23:12:40.916Z,81.94
2019-06-07T23:15:49.522Z,82.21
2019-06-07T23:21:13.792Z,82.54
2019-06-07T23:23:43.987Z,82.58
2019-06-07T23:26:14.119Z,83.27
2019-06-07T23:28:44.282Z,83.17
2019-06-07T23:31:14.428Z,83.43
2019-06-07T23:33:44.587Z,83.86
2019-06-07T23:36:15.086Z,83.79
2019-06-07T23:38:44.980Z,83.96
2019-06-07T23:41:15.550Z,83.87
2019-06-07T23:43:45.312Z,83.83
2019-06-07T23:49:02.925Z,83.86
2019-06-07T23:51:32.222Z,84.02
2019-06-07T23:54:01.537Z,84.11
2019-06-07T23:56:30.904Z,84.32
2019-06-07T23:59:00.199Z,84.82
